Terminal Aerodrome Forecast
Issued by NWS Wilmington, OH

Current Version | Previous Version | Text Only | Print | Product List | Glossary On
Versions: 1 2 3 4 5 6 7 8 9 10 11 12 13 14
000
FTUS41 KILN 201100
TAFILN
TAF
KILN 201134Z 2012/2112 06007KT P6SM SCT250
     FM201500 14007KT P6SM SCT250
     FM201800 17008KT P6SM FEW050 SCT250
     FM210000 14003KT P6SM SCT050 BKN200=

USA.gov is the U.S. government's official web portal to all federal, state and local government web resources and services.